Time;durP1;ratioP1;P1;durP2;ratioP2;P2;SDS_P1;SDS_P2;PMS_P1;PMS_P2;Temp;Humidity;BMP_temperature;BMP_pressure;BME280_temperature;BME280_humidity;BME280_pressure;Samples;Min_cycle;Max_cycle;Signal;HPM_P1;HPM_P2
2022/11/18 00:00:51;;;;;;;;;0.00;0.00;;;;;12.61;68.46;99731.84;5059124;28;45280;-80
2022/11/18 00:03:17;;;;;;;;;0.00;0.00;;;;;12.84;68.71;99768.75;5057644;28;46433;-80
2022/11/18 00:05:51;;;;;;;;;0.00;0.00;;;;;12.88;68.56;99762.66;5057192;28;45655;-80
2022/11/18 00:08:17;;;;;;;;;0.00;0.00;;;;;12.66;68.78;99719.69;5059046;28;45332;-79
2022/11/18 00:10:42;;;;;;;;;1.00;0.00;;;;;12.86;68.76;99751.28;5040299;28;45380;-80
2022/11/18 00:16:05;;;;;;;;;0.00;0.00;;;;;12.98;68.71;99765.38;5058589;28;45371;-80
2022/11/18 00:18:31;;;;;;;;;0.00;0.00;;;;;12.84;68.62;99742.53;5058332;28;45423;-80
2022/11/18 00:21:04;;;;;;;;;1.00;0.00;;;;;12.94;68.75;99762.72;5058573;28;45513;-80
2022/11/18 00:23:30;;;;;;;;;0.00;0.00;;;;;12.87;68.62;99753.06;5058209;28;45490;-80
2022/11/18 00:26:02;;;;;;;;;0.67;0.00;;;;;12.80;68.72;99740.75;5056827;28;45481;-80
2022/11/18 00:28:27;;;;;;;;;0.00;0.00;;;;;12.87;68.84;99754.78;5057190;28;45308;-80
2022/11/18 00:30:59;;;;;;;;;0.75;0.00;;;;;12.71;68.64;99727.56;5040059;28;45668;-80
2022/11/18 00:33:25;;;;;;;;;0.00;0.00;;;;;12.79;68.54;99739.00;5058164;28;46311;-79
2022/11/18 00:35:54;;;;;;;;;0.00;0.00;;;;;12.65;68.96;99728.44;5058229;28;45317;-80
2022/11/18 00:38:20;;;;;;;;;0.00;0.00;;;;;12.62;69.11;99738.00;5058468;28;45462;-80
2022/11/18 00:40:45;;;;;;;;;0.00;0.00;;;;;12.60;69.46;99743.22;5056741;28;45662;-80
2022/11/18 00:43:11;;;;;;;;;0.00;0.00;;;;;12.64;69.29;99746.75;5057571;28;46038;-80
2022/11/18 00:45:36;;;;;;;;;0.00;0.00;;;;;12.46;69.38;99719.50;5057842;28;45323;-80
2022/11/18 00:48:02;;;;;;;;;0.00;0.00;;;;;12.58;69.51;99725.75;5058097;28;45486;-80
2022/11/18 00:50:28;;;;;;;;;0.00;0.00;;;;;12.71;69.28;99744.19;5057961;28;45504;-80
2022/11/18 00:52:53;;;;;;;;;0.00;0.00;;;;;12.53;68.69;99716.09;5039440;28;45526;-80
2022/11/18 00:55:19;;;;;;;;;1.00;0.00;;;;;12.71;68.99;99752.06;5058108;28;45375;-80
2022/11/18 00:57:44;;;;;;;;;0.00;0.00;;;;;12.62;69.24;99727.53;5057921;28;45462;-80
2022/11/18 01:00:10;;;;;;;;;0.00;0.00;;;;;12.64;69.04;99731.91;5056662;28;45379;-79
2022/11/18 01:02:36;;;;;;;;;0.00;0.00;;;;;12.62;68.92;99722.28;5057494;28;45944;-80
2022/11/18 01:05:02;;;;;;;;;0.00;0.00;;;;;12.71;68.84;99745.91;5056436;28;45629;-80
2022/11/18 01:07:28;;;;;;;;;0.00;0.00;;;;;12.61;69.25;99739.72;5058021;28;45964;-80
2022/11/18 01:09:54;;;;;;;;;0.00;0.00;;;;;12.42;68.67;99709.00;5039430;28;45345;-80
2022/11/18 01:15:04;;;;;;;;;0.00;0.00;;;;;12.59;69.01;99751.94;5057572;28;45274;-80
2022/11/18 01:17:30;;;;;;;;;0.00;0.00;;;;;12.56;68.68;99749.28;5057646;28;45415;-79
2022/11/18 01:19:57;;;;;;;;;0.00;0.00;;;;;12.58;68.52;99739.72;5057727;28;45320;-80
2022/11/18 01:22:22;;;;;;;;;0.00;0.00;;;;;12.50;68.52;99718.69;5057566;28;45403;-80
2022/11/18 01:24:48;;;;;;;;;0.00;0.00;;;;;12.51;68.56;99716.94;5057103;28;45434;-80
2022/11/18 01:27:13;;;;;;;;;0.00;0.00;;;;;12.57;68.91;99732.69;5057285;28;45439;-80
2022/11/18 01:29:39;;;;;;;;;0.67;0.00;;;;;12.42;68.98;99707.25;5057553;28;45331;-80
2022/11/18 01:32:04;;;;;;;;;1.00;0.00;;;;;12.50;69.66;99721.28;5057270;28;45541;-80
2022/11/18 01:34:30;;;;;;;;;0.00;0.00;;;;;12.58;69.56;99741.47;5057295;28;45277;-80
2022/11/18 01:36:57;;;;;;;;;0.00;0.00;;;;;12.57;69.36;99737.94;5039339;28;45530;-79
2022/11/18 01:39:23;;;;;;;;;1.00;0.00;;;;;12.47;69.49;99726.53;5057721;28;45281;-80
2022/11/18 01:41:48;;;;;;;;;0.00;0.00;;;;;12.49;69.28;99719.56;5057179;28;45269;-80
2022/11/18 01:44:51;;;;;;;;;0.00;0.00;;;;;12.67;69.20;99750.28;5057110;28;45422;-79
2022/11/18 01:47:17;;;;;;;;;0.00;0.00;;;;;12.51;69.59;99727.41;5039201;28;45390;-80
2022/11/18 01:49:43;;;;;;;;;0.00;0.00;;;;;12.71;68.72;99757.31;5055836;28;45599;-80
2022/11/18 01:52:10;;;;;;;;;0.67;0.00;;;;;12.74;68.32;99754.69;5056778;28;46203;-79
2022/11/18 01:54:41;;;;;;;;;0.00;0.00;;;;;12.63;69.25;99739.75;5039072;28;45463;-80
2022/11/18 01:57:11;;;;;;;;;0.00;0.00;;;;;12.75;68.45;99760.81;5056777;28;45329;-80
2022/11/18 01:59:40;;;;;;;;;0.00;0.00;;;;;12.72;68.11;99758.16;5057255;28;45491;-80
2022/11/18 02:02:10;;;;;;;;;0.00;0.00;;;;;12.65;68.94;99759.88;5056711;28;46205;-80
2022/11/18 02:04:42;;;;;;;;;0.00;0.00;;;;;12.68;68.88;99778.22;5055147;28;45495;-80
2022/11/18 02:07:09;;;;;;;;;0.00;0.00;;;;;12.66;69.09;99763.38;5055580;28;45484;-80
2022/11/18 02:09:37;;;;;;;;;0.00;0.00;;;;;12.60;68.76;99745.84;5057187;28;45424;-80
2022/11/18 02:12:03;;;;;;;;;0.00;0.00;;;;;12.70;68.82;99758.16;5056864;28;46190;-80
2022/11/18 02:14:33;;;;;;;;;1.00;0.00;;;;;12.56;68.79;99735.31;5056665;28;45329;-80
2022/11/18 02:17:19;;;;;;;;;0.00;0.00;;;;;12.51;69.14;99722.16;5056917;28;45259;-80
2022/11/18 02:19:44;;;;;;;;;0.00;0.00;;;;;12.79;68.38;99772.19;5038768;28;45550;-80
2022/11/18 02:22:22;;;;;;;;;0.00;0.00;;;;;12.79;68.99;99780.94;5038455;28;47068;-80
2022/11/18 02:25:05;;;;;;;;;0.00;0.00;;;;;12.75;69.63;99787.00;5056719;28;45314;-80
2022/11/18 02:27:49;;;;;;;;;0.00;0.00;;;;;12.77;69.59;99777.41;5056653;28;45443;-80
2022/11/18 02:30:16;;;;;;;;;1.00;0.00;;;;;12.71;69.92;99762.53;5056861;28;45201;-80
2022/11/18 02:32:55;;;;;;;;;0.00;0.00;;;;;12.57;69.96;99748.41;5056473;28;45332;-79
2022/11/18 02:35:28;;;;;;;;;0.00;0.00;;;;;12.75;69.97;99768.66;5056346;28;45323;-80
2022/11/18 02:38:10;;;;;;;;;0.00;0.00;;;;;12.75;69.74;99771.28;5038667;28;45390;-80
2022/11/18 02:40:42;;;;;;;;;0.00;0.00;;;;;12.73;69.72;99759.91;5056748;28;45458;-80
2022/11/18 02:43:18;;;;;;;;;0.00;0.00;;;;;12.71;69.31;99754.69;5056329;28;45513;-80
2022/11/18 02:45:51;;;;;;;;;0.00;0.00;;;;;12.40;69.25;99718.59;5038334;28;45396;-80
2022/11/18 02:48:19;;;;;;;;;0.00;0.00;;;;;12.37;69.10;99726.41;5056415;28;45228;-80
2022/11/18 02:50:51;;;;;;;;;0.00;0.00;;;;;12.25;69.17;99732.41;5039194;28;45600;-80
2022/11/18 02:53:19;;;;;;;;;0.00;0.00;;;;;12.27;69.13;99746.38;5059108;28;45186;-80
2022/11/18 02:55:50;;;;;;;;;0.00;0.00;;;;;11.98;69.27;99712.03;5059628;28;45174;-80
2022/11/18 02:58:19;;;;;;;;;0.00;0.00;;;;;11.90;70.08;99709.34;5058385;28;45509;-80
2022/11/18 03:00:53;;;;;;;;;0.00;0.00;;;;;11.98;70.61;99733.88;5041679;28;45492;-80
2022/11/18 03:03:29;;;;;;;;;0.00;0.00;;;;;11.86;71.44;99728.47;5041256;28;47720;-80
2022/11/18 03:06:22;;;;;;;;;0.00;0.00;;;;;12.04;72.33;99746.16;5041286;28;45288;-80
2022/11/18 03:08:55;;;;;;;;;0.00;0.00;;;;;11.74;71.53;99671.66;5041687;28;45469;-80
2022/11/18 03:11:23;;;;;;;;;0.00;0.00;;;;;12.18;71.22;99735.84;5059538;28;46076;-80
2022/11/18 03:14:18;;;;;;;;;0.00;0.00;;;;;12.17;71.21;99732.31;5059397;28;45309;-80
2022/11/18 03:16:59;;;;;;;;;0.00;0.00;;;;;12.14;70.85;99720.09;5058056;28;45530;-80
2022/11/18 03:19:39;;;;;;;;;0.00;0.00;;;;;12.16;71.31;99725.34;5059340;28;45508;-79
2022/11/18 03:22:23;;;;;;;;;0.00;0.00;;;;;12.14;71.21;99727.94;5059623;28;45317;-80
2022/11/18 03:25:19;;;;;;;;;0.33;0.00;;;;;12.00;71.80;99719.06;5059042;28;45510;-79
2022/11/18 03:27:59;;;;;;;;;0.00;0.00;;;;;11.92;72.63;99710.25;5059112;28;45357;-80
2022/11/18 03:30:25;;;;;;;;;0.00;0.00;;;;;11.78;72.24;99696.09;5057820;28;45400;-79
2022/11/18 03:33:00;;;;;;;;;0.00;0.00;;;;;11.91;72.46;99722.44;5041378;28;45323;-79
2022/11/18 03:35:30;;;;;;;;;0.00;0.00;;;;;12.01;72.20;99733.88;5057556;28;45522;-80
2022/11/18 03:38:06;;;;;;;;;0.50;0.00;;;;;12.01;71.46;99735.63;5057473;28;45560;-80
2022/11/18 03:40:34;;;;;;;;;0.00;0.00;;;;;12.00;71.32;99737.38;5059255;28;45554;-79
2022/11/18 03:43:14;;;;;;;;;0.00;0.00;;;;;11.87;71.61;99728.47;5058360;28;45442;-80
2022/11/18 03:45:46;;;;;;;;;0.00;0.00;;;;;11.79;72.11;99729.25;5057186;28;46964;-80
2022/11/18 03:48:25;;;;;;;;;0.67;0.00;;;;;11.79;72.18;99748.44;5057591;28;45391;-80
2022/11/18 03:50:58;;;;;;;;;0.00;0.00;;;;;11.57;71.90;99739.44;5057626;28;45452;-79
2022/11/18 03:53:26;;;;;;;;;1.00;0.00;;;;;11.68;72.12;99760.53;5059229;28;45454;-79
2022/11/18 03:56:00;;;;;;;;;0.00;0.00;;;;;11.63;72.23;99747.38;5058569;28;46276;-79
2022/11/18 03:58:41;;;;;;;;;0.00;0.00;;;;;11.67;72.28;99754.41;5058645;28;45426;-80
2022/11/18 04:01:21;;;;;;;;;0.00;0.00;;;;;11.70;73.18;99762.31;5058834;28;45340;-80
2022/11/18 04:03:47;;;;;;;;;0.00;0.00;;;;;11.89;72.46;99792.22;5059040;28;45519;-80
2022/11/18 04:06:28;;;;;;;;;0.00;0.00;;;;;11.93;71.96;99786.16;5057028;28;47412;-80
2022/11/18 04:08:59;;;;;;;;;0.00;0.00;;;;;11.98;71.02;99772.25;5057350;28;45486;-80
2022/11/18 04:14:19;;;;;;;;;0.00;0.00;;;;;11.89;71.29;99737.25;5058601;28;45490;-79
2022/11/18 04:16:50;;;;;;;;;1.00;0.00;;;;;11.93;71.00;99743.41;5056988;28;45706;-80
2022/11/18 04:19:16;;;;;;;;;0.00;0.00;;;;;11.99;71.81;99746.09;5057107;28;45487;-79
2022/11/18 04:21:41;;;;;;;;;1.00;0.67;;;;;12.11;71.72;99767.16;5040428;28;45407;-80
2022/11/18 04:24:07;;;;;;;;;0.00;0.00;;;;;12.12;71.27;99768.06;5057222;28;45248;-80
2022/11/18 04:26:33;;;;;;;;;0.00;0.00;;;;;12.21;70.94;99770.75;5040292;28;48150;-80
2022/11/18 04:28:58;;;;;;;;;1.00;0.00;;;;;12.13;71.02;99741.88;5058479;28;45426;-80
2022/11/18 04:31:24;;;;;;;;;1.00;0.00;;;;;12.30;70.91;99770.00;5058361;28;45382;-80
2022/11/18 04:33:49;;;;;;;;;1.00;0.00;;;;;12.12;71.01;99731.41;5058430;28;45489;-80
2022/11/18 04:36:15;;;;;;;;;0.67;0.00;;;;;12.24;71.04;99744.63;5039886;28;47027;-80
2022/11/18 04:38:40;;;;;;;;;0.00;0.00;;;;;12.21;71.18;99739.34;5040262;28;45406;-80
2022/11/18 04:41:06;;;;;;;;;0.00;0.00;;;;;12.29;71.27;99763.88;5056846;28;45468;-80
2022/11/18 04:43:31;;;;;;;;;0.33;0.00;;;;;12.29;70.93;99763.88;5058808;28;45367;-80
2022/11/18 04:45:57;;;;;;;;;0.33;0.00;;;;;12.31;70.96;99762.16;5057893;28;45493;-79
2022/11/18 04:48:23;;;;;;;;;0.00;0.00;;;;;12.13;70.40;99733.16;5056708;28;45391;-80
2022/11/18 04:50:48;;;;;;;;;0.00;0.00;;;;;12.17;70.15;99748.03;5058317;28;45237;-80
2022/11/18 04:53:14;;;;;;;;;0.00;0.00;;;;;12.27;70.49;99765.59;5056967;28;45542;-80
2022/11/18 04:55:39;;;;;;;;;0.00;0.00;;;;;12.17;71.15;99757.63;5039478;28;45551;-79
2022/11/18 04:58:05;;;;;;;;;0.00;0.00;;;;;12.12;71.63;99750.59;5039708;28;45445;-80
2022/11/18 05:00:30;;;;;;;;;1.00;0.00;;;;;12.26;71.65;99768.22;5057686;28;45446;-80
2022/11/18 05:02:56;;;;;;;;;0.00;0.00;;;;;12.20;71.15;99752.44;5058230;28;45221;-80
2022/11/18 05:05:21;;;;;;;;;0.00;0.00;;;;;12.04;70.79;99720.84;5057672;28;45395;-79
2022/11/18 05:07:47;;;;;;;;;0.00;0.00;;;;;12.26;70.76;99748.13;5057646;28;45464;-80
2022/11/18 05:10:12;;;;;;;;;0.00;0.00;;;;;12.13;70.99;99734.03;5058085;28;45375;-80
2022/11/18 05:12:51;;;;;;;;;0.00;0.00;;;;;12.22;71.67;99746.34;5058010;28;45519;-80
2022/11/18 05:15:19;;;;;;;;;0.00;0.00;;;;;12.19;72.41;99748.06;5056823;28;46511;-80
2022/11/18 05:17:46;;;;;;;;;0.00;0.00;;;;;12.39;71.89;99769.22;5057572;28;45287;-80
2022/11/18 05:20:12;;;;;;;;;0.00;0.00;;;;;12.30;70.98;99749.06;5057296;28;45353;-80
2022/11/18 05:22:39;;;;;;;;;0.00;0.00;;;;;12.39;70.86;99759.59;5058017;28;45850;-80
2022/11/18 05:25:05;;;;;;;;;0.00;0.00;;;;;12.34;70.78;99740.38;5057575;28;45387;-80
2022/11/18 05:27:31;;;;;;;;;0.00;0.00;;;;;12.36;70.86;99754.34;5039462;28;45387;-80
2022/11/18 05:29:57;;;;;;;;;0.00;0.00;;;;;12.07;71.68;99713.00;5057570;28;45355;-80
2022/11/18 05:32:22;;;;;;;;;0.00;0.00;;;;;12.28;70.83;99743.78;5056376;28;45529;-79
2022/11/18 05:34:48;;;;;;;;;0.00;0.00;;;;;12.11;70.62;99722.66;5055372;28;46165;-79
2022/11/18 05:37:14;;;;;;;;;0.67;0.67;;;;;12.26;71.15;99753.38;5057284;28;45530;-79
2022/11/18 05:39:39;;;;;;;;;1.00;0.00;;;;;12.08;71.03;99727.88;5057519;28;45257;-79
2022/11/18 05:44:50;;;;;;;;;0.00;0.00;;;;;12.05;71.57;99747.91;5057214;28;45911;-79
2022/11/18 05:47:17;;;;;;;;;0.00;0.00;;;;;12.07;71.79;99754.91;5057352;28;45328;-79
2022/11/18 05:49:43;;;;;;;;;0.00;0.00;;;;;11.82;71.69;99722.31;5057140;28;45319;-79
2022/11/18 05:52:08;;;;;;;;;0.00;0.00;;;;;11.81;72.28;99723.16;5057089;28;45382;-80
2022/11/18 05:54:37;;;;;;;;;0.00;0.00;;;;;11.82;71.72;99730.16;5038452;28;47396;-80
2022/11/18 05:57:02;;;;;;;;;2.00;1.00;;;;;11.94;72.11;99755.66;5038928;28;45486;-79
2022/11/18 05:59:28;;;;;;;;;0.00;0.00;;;;;11.85;71.95;99739.78;5057046;28;45244;-79
2022/11/18 06:02:05;;;;;;;;;1.00;0.00;;;;;11.72;72.08;99726.56;5057480;28;45391;-80
2022/11/18 06:04:39;;;;;;;;;0.00;0.00;;;;;11.93;72.33;99764.34;5057175;28;46643;-79
2022/11/18 06:07:17;;;;;;;;;1.00;0.00;;;;;11.87;71.45;99753.78;5067090;28;45232;-80
2022/11/18 06:09:47;;;;;;;;;0.33;0.00;;;;;11.81;71.50;99743.22;5040793;28;45444;-80
2022/11/18 06:12:17;;;;;;;;;0.00;0.00;;;;;11.91;71.23;99766.94;5055705;28;45639;-79
2022/11/18 06:14:51;;;;;;;;;0.00;0.00;;;;;11.78;70.92;99753.66;5056611;28;46373;-80
2022/11/18 06:17:24;;;;;;;;;0.00;0.00;;;;;11.70;70.45;99754.44;5056695;28;45470;-79
2022/11/18 06:19:51;;;;;;;;;0.00;0.00;;;;;11.87;70.58;99787.78;5057355;28;45436;-80
2022/11/18 06:22:17;;;;;;;;;0.00;0.00;;;;;11.60;70.26;99733.38;5056822;28;45606;-79
2022/11/18 06:24:43;;;;;;;;;1.00;0.00;;;;;11.80;70.19;99776.38;5038460;28;47247;-80
2022/11/18 06:27:10;;;;;;;;;1.00;1.00;;;;;11.81;70.34;99790.34;5041409;28;45586;-79
2022/11/18 06:29:35;;;;;;;;;11.00;9.75;;;;;11.78;71.29;99788.56;5058598;28;45391;-79
2022/11/18 06:32:01;;;;;;;;;6.50;6.00;;;;;11.78;71.35;99798.13;5060349;28;45443;-79
2022/11/18 06:34:27;;;;;;;;;10.00;8.00;;;;;11.69;71.72;99786.69;5042046;28;46340;-80
2022/11/18 06:36:52;;;;;;;;;40.00;30.00;;;;;11.71;72.03;99784.97;5059973;28;45343;-79
2022/11/18 06:39:18;;;;;;;;;24.25;21.00;;;;;11.81;72.14;99796.44;5041621;28;45410;-79
2022/11/18 06:41:43;;;;;;;;;8.25;6.75;;;;;11.59;71.81;99763.00;5059738;28;45443;-80
2022/11/18 06:44:12;;;;;;;;;1.00;0.00;;;;;11.80;70.51;99799.94;5059957;28;45452;-79
2022/11/18 06:46:56;;;;;;;;;1.00;0.00;;;;;11.66;70.13;99770.09;5060069;28;45351;-79
2022/11/18 06:49:24;;;;;;;;;2.00;1.00;;;;;11.70;70.40;99793.69;5060207;28;45566;-79
2022/11/18 06:51:50;;;;;;;;;4.75;4.75;;;;;11.48;70.96;99766.38;5059792;28;45515;-79
2022/11/18 06:54:16;;;;;;;;;9.50;7.75;;;;;11.64;70.64;99797.94;5059203;28;46119;-80
2022/11/18 06:56:41;;;;;;;;;5.25;4.75;;;;;11.51;71.32;99791.69;5041556;28;45574;-79
2022/11/18 06:59:07;;;;;;;;;4.00;3.75;;;;;11.55;71.28;99788.25;5058209;28;45271;-80
2022/11/18 07:01:37;;;;;;;;;6.75;5.75;;;;;11.69;71.00;99827.69;5059595;28;45366;-80
2022/11/18 07:04:03;;;;;;;;;0.00;0.00;;;;;11.84;70.85;99874.13;5041285;28;47428;-80
2022/11/18 07:06:32;;;;;;;;;0.00;0.00;;;;;11.83;70.11;99883.69;5059029;28;45521;-79
2022/11/18 07:09:02;;;;;;;;;0.00;0.00;;;;;11.80;70.07;99874.91;5041084;28;45405;-79
2022/11/18 07:11:28;;;;;;;;;0.00;0.00;;;;;11.43;70.69;99850.84;5059475;28;45370;-79
2022/11/18 07:13:54;;;;;;;;;0.00;0.00;;;;;11.64;70.70;99879.03;5040649;28;47910;-79
2022/11/18 07:16:23;;;;;;;;;0.00;0.00;;;;;11.59;70.90;99873.75;5041287;28;45498;-79
2022/11/18 07:18:50;;;;;;;;;0.00;0.00;;;;;11.64;70.26;99885.19;5059285;28;45485;-79
2022/11/18 07:21:19;;;;;;;;;2.00;1.00;;;;;11.58;71.45;99878.97;5059162;28;45462;-79
2022/11/18 07:23:45;;;;;;;;;0.00;0.00;;;;;11.58;70.62;99892.03;5059153;28;45613;-79
2022/11/18 07:26:11;;;;;;;;;0.00;0.00;;;;;11.46;70.65;99885.78;5040931;28;45487;-79
2022/11/18 07:28:37;;;;;;;;;0.00;0.00;;;;;11.52;70.75;99898.06;5058990;28;45486;-79
2022/11/18 07:31:08;;;;;;;;;0.00;0.00;;;;;11.54;70.25;99886.78;5058843;28;45353;-80
2022/11/18 07:33:34;;;;;;;;;0.67;0.00;;;;;11.52;71.08;99877.16;5057692;28;46453;-79
2022/11/18 07:36:05;;;;;;;;;0.00;0.00;;;;;11.70;70.56;99898.34;5058805;28;45597;-79
2022/11/18 07:38:31;;;;;;;;;0.00;0.00;;;;;11.37;69.32;99832.44;5058837;28;45545;-79
2022/11/18 07:41:09;;;;;;;;;0.00;0.00;;;;;11.49;69.71;99853.56;5059323;28;45519;-79
2022/11/18 07:43:36;;;;;;;;;0.00;0.00;;;;;11.80;70.12;99895.84;5041005;28;46490;-80
2022/11/18 07:46:16;;;;;;;;;0.00;0.00;;;;;11.86;69.71;99895.97;5059053;28;45292;-79
2022/11/18 07:48:43;;;;;;;;;0.00;0.00;;;;;11.88;69.88;99889.00;5059367;28;45379;-79
2022/11/18 07:51:10;;;;;;;;;0.00;0.00;;;;;11.91;69.67;99891.69;5059013;28;45278;-79
2022/11/18 07:53:36;;;;;;;;;0.00;0.00;;;;;11.81;68.96;99867.09;5058675;28;45477;-79
2022/11/18 07:56:02;;;;;;;;;0.00;0.00;;;;;11.88;68.52;99874.19;5057354;28;45243;-79
2022/11/18 07:58:28;;;;;;;;;0.00;0.00;;;;;11.91;68.38;99870.75;5057382;28;45485;-80
2022/11/18 08:00:54;;;;;;;;;0.00;0.00;;;;;12.09;67.95;99884.09;5040635;28;45191;-80
2022/11/18 08:03:26;;;;;;;;;0.00;0.00;;;;;12.07;67.70;99874.47;5058559;28;45464;-80
2022/11/18 08:05:57;;;;;;;;;1.00;1.00;;;;;12.17;68.63;99889.41;5057330;28;45339;-79
2022/11/18 08:08:23;;;;;;;;;0.33;0.00;;;;;12.20;67.96;99888.59;5058692;28;45443;-79
2022/11/18 08:10:48;;;;;;;;;0.00;0.00;;;;;12.17;67.83;99878.06;5057199;28;45474;-80
2022/11/18 08:13:14;;;;;;;;;0.00;0.00;;;;;12.16;67.15;99897.28;5058704;28;45485;-80
2022/11/18 08:15:41;;;;;;;;;0.00;0.00;;;;;12.24;66.74;99916.59;5040287;28;45372;-79
2022/11/18 08:18:06;;;;;;;;;12.75;11.75;;;;;11.92;67.64;99876.00;5057309;28;45324;-80
2022/11/18 08:20:36;;;;;;;;;5.00;5.00;;;;;12.12;68.03;99920.78;5040461;28;45208;-80
2022/11/18 08:23:02;;;;;;;;;0.00;0.00;;;;;11.93;69.41;99921.38;5058406;28;46292;-80
2022/11/18 08:25:28;;;;;;;;;0.00;0.00;;;;;12.07;70.37;99966.09;5040088;28;45399;-80
2022/11/18 08:27:53;;;;;;;;;0.00;0.00;;;;;11.86;70.95;99940.47;5058446;28;45308;-79
2022/11/18 08:30:19;;;;;;;;;0.00;0.00;;;;;12.03;70.93;99970.38;5057455;28;45339;-80
2022/11/18 08:32:45;;;;;;;;;0.00;0.00;;;;;12.04;70.57;99981.75;5058630;28;45997;-79
2022/11/18 08:35:10;;;;;;;;;0.00;0.00;;;;;12.16;70.56;99996.78;5056908;28;45378;-79
2022/11/18 08:37:36;;;;;;;;;0.00;0.00;;;;;12.23;70.90;100002.09;5058344;28;45355;-79
2022/11/18 08:40:02;;;;;;;;;0.00;0.00;;;;;12.33;71.11;100011.88;5058411;28;45216;-80
2022/11/18 08:42:28;;;;;;;;;0.00;0.00;;;;;12.28;70.80;100010.03;5057940;28;45513;-79
2022/11/18 08:44:54;;;;;;;;;0.00;0.00;;;;;12.07;70.77;99977.44;5039700;28;45498;-80
2022/11/18 08:47:21;;;;;;;;;0.00;0.00;;;;;12.00;70.86;99983.44;5058153;28;45212;-79
2022/11/18 08:49:46;;;;;;;;;1.00;0.00;;;;;12.03;71.25;99986.09;5057589;28;45525;-80
2022/11/18 08:52:12;;;;;;;;;0.00;0.00;;;;;12.20;71.51;100012.53;5057935;28;45536;-80
2022/11/18 08:54:37;;;;;;;;;1.67;1.00;;;;;12.13;70.95;100006.31;5057872;28;45284;-80
2022/11/18 08:57:04;;;;;;;;;0.00;0.00;;;;;12.24;71.12;100027.44;5057566;28;45500;-80
2022/11/18 08:59:31;;;;;;;;;0.00;0.00;;;;;12.03;71.40;99990.47;5056738;28;45264;-79
2022/11/18 09:01:56;;;;;;;;;0.00;0.00;;;;;12.16;69.73;100013.34;5057611;28;45505;-79
2022/11/18 09:04:22;;;;;;;;;1.00;0.00;;;;;12.02;70.63;100007.91;5057541;28;45347;-80
2022/11/18 09:06:47;;;;;;;;;0.00;0.00;;;;;11.94;70.45;99976.38;5058092;28;45355;-79
2022/11/18 09:09:13;;;;;;;;;0.67;0.00;;;;;12.17;69.85;100003.75;5058058;28;45375;-80
2022/11/18 09:11:39;;;;;;;;;0.00;0.00;;;;;12.16;69.88;99999.41;5057542;28;46007;-79
2022/11/18 09:14:04;;;;;;;;;0.00;0.00;;;;;12.20;69.45;99994.22;5056478;28;45343;-79
2022/11/18 09:16:32;;;;;;;;;0.00;0.00;;;;;12.32;69.22;99988.28;5057388;28;45239;-79
2022/11/18 09:18:58;;;;;;;;;1.00;1.00;;;;;12.41;69.23;99972.66;5057603;28;45466;-79
2022/11/18 09:21:25;;;;;;;;;0.00;0.00;;;;;12.41;69.38;99964.81;5057300;28;46555;-79
2022/11/18 09:23:51;;;;;;;;;0.67;0.00;;;;;12.42;68.89;99963.09;5057667;28;45497;-79
2022/11/18 09:26:19;;;;;;;;;1.00;0.00;;;;;12.58;68.58;99982.50;5039237;28;45371;-79
2022/11/18 09:28:45;;;;;;;;;0.00;0.00;;;;;12.35;68.53;99930.69;5039750;28;45621;-79
2022/11/18 09:31:13;;;;;;;;;1.00;1.00;;;;;12.62;68.20;99972.06;5057265;28;45455;-80
2022/11/18 09:33:40;;;;;;;;;1.00;0.33;;;;;12.55;68.03;99949.25;5056941;28;45291;-79
2022/11/18 09:36:14;;;;;;;;;0.00;0.00;;;;;12.79;68.00;99964.41;5057017;28;45408;-79
2022/11/18 09:38:40;;;;;;;;;0.00;0.00;;;;;12.85;67.52;99960.97;5057383;28;45535;-79
2022/11/18 09:41:08;;;;;;;;;0.00;0.00;;;;;13.07;66.86;99962.97;5056914;28;45565;-79
2022/11/18 09:44:01;;;;;;;;;1.00;0.00;;;;;13.27;66.32;99962.28;5057171;28;45559;-80
2022/11/18 09:46:36;;;;;;;;;0.00;0.00;;;;;13.55;65.73;99952.97;5039100;28;45554;-79
2022/11/18 09:49:13;;;;;;;;;0.00;0.00;;;;;14.05;64.48;99944.56;5057104;28;45319;-79
2022/11/18 09:51:42;;;;;;;;;2.33;1.67;;;;;14.35;62.49;99911.47;5056843;28;45189;-79
2022/11/18 09:54:11;;;;;;;;;0.00;0.00;;;;;14.90;61.89;99947.59;5056628;28;45430;-79
2022/11/18 09:56:39;;;;;;;;;0.00;0.00;;;;;14.97;60.97;99922.22;5055895;28;45299;-79
2022/11/18 09:59:05;;;;;;;;;0.00;0.00;;;;;15.42;60.16;99944.16;5039087;28;45416;-80
2022/11/18 10:01:30;;;;;;;;;0.00;0.00;;;;;15.79;59.72;99947.72;5058657;28;46879;-79
2022/11/18 10:03:56;;;;;;;;;1.00;0.00;;;;;16.21;58.43;99939.72;5060503;28;45269;-80
2022/11/18 10:06:31;;;;;;;;;0.00;0.00;;;;;16.58;58.05;99937.84;5060667;28;45529;-80
2022/11/18 10:09:25;;;;;;;;;0.00;0.00;;;;;17.03;56.55;99942.91;5060774;28;45425;-80
2022/11/18 10:12:29;;;;;;;;;0.00;0.00;;;;;17.24;55.28;99929.59;5042296;28;47327;-80
2022/11/18 10:15:28;;;;;;;;;0.00;0.00;;;;;17.55;54.40;99939.94;5036043;28;45300;-80
2022/11/18 10:18:18;;;;;;;;;0.00;0.00;;;;;17.64;53.56;99915.19;5059273;28;45324;-80
2022/11/18 10:20:59;;;;;;;;;0.00;0.00;;;;;17.85;53.44;99932.66;5059022;28;45497;-80
2022/11/18 10:23:34;;;;;;;;;0.00;0.00;;;;;18.04;53.55;99939.47;5060201;28;46288;-80
2022/11/18 10:26:00;;;;;;;;;0.00;0.00;;;;;18.09;52.87;99935.03;5060062;28;45446;-80
2022/11/18 10:28:28;;;;;;;;;0.00;0.00;;;;;18.06;52.83;99935.09;5060469;28;45447;-80
2022/11/18 10:31:04;;;;;;;;;0.33;0.00;;;;;17.97;52.90;99937.81;5060448;28;45462;-81
2022/11/18 10:33:29;;;;;;;;;0.00;0.00;;;;;17.81;52.83;99917.69;5059931;28;45425;-80
2022/11/18 10:36:29;;;;;;;;;0.00;0.00;;;;;17.82;53.69;99930.00;5060062;28;45306;-80
2022/11/18 10:39:12;;;;;;;;;0.00;0.00;;;;;17.75;53.05;99933.59;5037697;28;45514;-80
2022/11/18 10:41:46;;;;;;;;;0.00;0.00;;;;;17.73;53.64;99938.03;5060138;28;45349;-80
2022/11/18 10:44:28;;;;;;;;;0.00;0.00;;;;;17.50;54.05;99912.66;5059599;28;46238;-80
2022/11/18 10:46:54;;;;;;;;;0.00;0.00;;;;;17.49;54.41;99932.94;5059895;28;45414;-80
2022/11/18 10:49:20;;;;;;;;;0.00;0.00;;;;;17.28;55.52;99938.38;5059964;28;45248;-80
2022/11/18 10:52:02;;;;;;;;;0.00;0.00;;;;;16.97;55.04;99949.13;5042076;28;45249;-80
2022/11/18 10:54:28;;;;;;;;;10.67;9.67;;;;;16.52;56.88;99919.44;5041489;28;47755;-79
2022/11/18 10:57:18;;;;;;;;;3.33;3.33;;;;;16.42;58.13;99950.22;5041310;28;45434;-80
2022/11/18 10:59:50;;;;;;;;;4.00;1.00;;;;;16.15;58.61;99963.47;5038706;28;45510;-80
2022/11/18 11:02:31;;;;;;;;;21.67;20.00;;;;;16.08;59.36;99963.47;5059724;28;45435;-80
2022/11/18 11:05:17;;;;;;;;;34.75;28.25;;;;;15.94;60.00;99965.28;5041370;28;45554;-80
2022/11/18 11:07:43;;;;;;;;;1.00;1.00;;;;;15.80;61.16;99970.56;5059431;28;45433;-80
2022/11/18 11:10:12;;;;;;;;;2.00;2.00;;;;;15.60;61.87;99986.31;5059559;28;45316;-80
2022/11/18 11:12:45;;;;;;;;;0.00;0.00;;;;;15.17;60.82;99964.34;5058841;28;45334;-79
2022/11/18 11:15:38;;;;;;;;;2.00;2.00;;;;;14.88;61.19;99973.91;5041128;28;46991;-80
2022/11/18 11:18:42;;;;;;;;;0.00;0.00;;;;;14.64;61.01;99968.53;5041077;28;45423;-80
2022/11/18 11:21:15;;;;;;;;;0.00;0.00;;;;;14.62;60.86;99967.66;5037849;28;45263;-80
2022/11/18 11:23:43;;;;;;;;;0.00;0.00;;;;;14.34;61.24;99970.13;5041237;28;45617;-79
2022/11/18 11:26:23;;;;;;;;;0.00;0.00;;;;;14.30;61.01;99970.97;5059174;28;45626;-79
2022/11/18 11:28:55;;;;;;;;;0.00;0.00;;;;;14.36;61.66;99963.13;5041306;28;45444;-79
2022/11/18 11:31:29;;;;;;;;;0.00;0.00;;;;;14.37;60.93;99964.91;5059332;28;45478;-80
2022/11/18 11:34:32;;;;;;;;;0.00;0.00;;;;;14.25;61.98;99968.34;5060039;28;45405;-79
2022/11/18 11:37:28;;;;;;;;;0.00;0.00;;;;;14.17;62.10;99932.41;5059488;28;45565;-78
2022/11/18 11:40:16;;;;;;;;;1.00;0.00;;;;;14.43;62.03;99958.78;5059018;28;45357;-78
2022/11/18 11:43:03;;;;;;;;;0.00;0.00;;;;;14.50;61.32;99966.72;5059070;28;45506;-78
2022/11/18 11:45:31;;;;;;;;;0.00;0.00;;;;;14.56;61.93;99957.09;5059486;28;45248;-78
2022/11/18 11:48:27;;;;;;;;;0.00;0.00;;;;;14.68;62.29;99949.28;5040846;28;48019;-79
2022/11/18 11:50:59;;;;;;;;;0.00;0.00;;;;;14.92;62.92;99945.84;5057650;28;45687;-79
2022/11/18 11:53:45;;;;;;;;;3.00;1.00;;;;;15.07;61.79;99945.88;5059144;28;45332;-79
2022/11/18 11:56:31;;;;;;;;;0.00;0.00;;;;;15.27;61.28;99939.78;5059009;28;45279;-79
2022/11/18 11:59:31;;;;;;;;;1.00;0.00;;;;;15.38;60.87;99937.16;5059062;28;45358;-79